createdAt,value
2024-02-09T00:00:26.340Z,98686.00
2024-02-09T00:02:53.460Z,98689.00
2024-02-09T00:05:20.499Z,98696.00
2024-02-09T00:07:50.568Z,98694.00
2024-02-09T00:10:22.313Z,98679.00
2024-02-09T00:12:51.593Z,98696.00
2024-02-09T00:15:19.799Z,98704.00
2024-02-09T00:17:48.429Z,98670.00
2024-02-09T00:20:15.923Z,98707.00
2024-02-09T00:22:43.289Z,98699.00
2024-02-09T00:25:11.576Z,98704.00
2024-02-09T00:27:41.943Z,98710.00
2024-02-09T00:30:09.732Z,98704.00
2024-02-09T00:32:37.696Z,98692.00
2024-02-09T00:35:05.595Z,98707.00
2024-02-09T00:37:32.841Z,98701.00
2024-02-09T00:39:59.992Z,98695.00
2024-02-09T00:42:26.988Z,98696.00
2024-02-09T00:44:53.922Z,98696.00
2024-02-09T00:47:23.632Z,98716.00
2024-02-09T00:49:50.795Z,98713.00
2024-02-09T00:52:17.910Z,98707.00
2024-02-09T00:54:44.904Z,98720.00
2024-02-09T00:57:11.932Z,98703.00
2024-02-09T00:59:41.761Z,98693.00
2024-02-09T01:02:08.954Z,98696.00
2024-02-09T01:04:39.807Z,98695.00
2024-02-09T01:07:11.036Z,98695.00
2024-02-09T01:09:38.660Z,98697.00
2024-02-09T01:12:09.311Z,98687.00
2024-02-09T01:14:55.830Z,98691.00
2024-02-09T01:17:41.745Z,98683.00
2024-02-09T01:20:28.205Z,98686.00
2024-02-09T01:23:13.761Z,98689.00
2024-02-09T01:25:59.035Z,98692.00
2024-02-09T01:28:44.767Z,98694.00
2024-02-09T01:31:30.414Z,98700.00
2024-02-09T01:34:15.873Z,98699.00
2024-02-09T01:37:01.281Z,98706.00
2024-02-09T01:39:46.823Z,98706.00
2024-02-09T01:42:32.413Z,98693.00
2024-02-09T01:45:18.181Z,98711.00
2024-02-09T01:48:04.394Z,98702.00
2024-02-09T01:50:50.081Z,98697.00
2024-02-09T01:53:36.702Z,98698.00
2024-02-09T01:56:23.321Z,98700.00
2024-02-09T01:59:09.299Z,98699.00
2024-02-09T02:01:55.817Z,98684.00
2024-02-09T02:04:41.363Z,98684.00
2024-02-09T02:07:31.696Z,98677.00
2024-02-09T02:10:17.094Z,98679.00
2024-02-09T02:13:02.710Z,98683.00
2024-02-09T02:15:48.166Z,98679.00
2024-02-09T02:18:33.843Z,98681.00
2024-02-09T02:21:19.800Z,98693.00
2024-02-09T02:24:12.521Z,98654.00
2024-02-09T02:26:57.958Z,98679.00
2024-02-09T02:29:43.489Z,98676.00
2024-02-09T02:32:29.036Z,98677.00
2024-02-09T02:35:14.521Z,98683.00
2024-02-09T02:38:00.072Z,98679.00
2024-02-09T02:40:45.516Z,98676.00
2024-02-09T02:43:12.394Z,98661.00
2024-02-09T02:45:39.318Z,98669.00
2024-02-09T02:48:25.565Z,98669.00
2024-02-09T02:51:11.087Z,98676.00
2024-02-09T02:53:56.687Z,98673.00
2024-02-09T02:56:42.148Z,98674.00
2024-02-09T02:59:27.811Z,98672.00
2024-02-09T03:02:13.106Z,98677.00
2024-02-09T03:04:40.239Z,98668.00
2024-02-09T03:07:35.219Z,98679.00
2024-02-09T03:09:54.342Z,98682.00
2024-02-09T03:12:21.240Z,98676.00
2024-02-09T03:14:48.319Z,98674.00
2024-02-09T03:17:15.281Z,98678.00
2024-02-09T03:19:43.544Z,98670.00
2024-02-09T03:22:10.651Z,98674.00
2024-02-09T03:24:41.341Z,98671.00
2024-02-09T03:27:09.415Z,98662.00
2024-02-09T03:29:37.918Z,98666.00
2024-02-09T03:32:05.131Z,98669.00
2024-02-09T03:34:32.208Z,98678.00
2024-02-09T03:37:00.025Z,98673.00
2024-02-09T03:39:26.984Z,98676.00
2024-02-09T03:41:54.984Z,98668.00
2024-02-09T03:44:21.988Z,98672.00
2024-02-09T03:46:48.993Z,98669.00
2024-02-09T03:49:16.013Z,98663.00
2024-02-09T03:51:43.167Z,98656.00
2024-02-09T03:54:11.462Z,98650.00
2024-02-09T03:56:39.455Z,98644.00
2024-02-09T03:59:09.455Z,98633.00
2024-02-09T04:01:38.915Z,98630.00
2024-02-09T04:04:08.747Z,98633.00
2024-02-09T04:06:35.830Z,98634.00
2024-02-09T04:09:23.087Z,98644.00
2024-02-09T04:11:51.331Z,98638.00
2024-02-09T04:14:18.436Z,98652.00
2024-02-09T04:16:45.377Z,98646.00
2024-02-09T04:19:12.463Z,98651.00
2024-02-09T04:21:48.478Z,98653.00
2024-02-09T04:24:26.430Z,98659.00
2024-02-09T04:26:56.082Z,98665.00
2024-02-09T04:29:23.931Z,98670.00
2024-02-09T04:31:52.690Z,98665.00
2024-02-09T04:34:20.118Z,98648.00
2024-02-09T04:36:54.472Z,98661.00
2024-02-09T04:39:22.789Z,98664.00
2024-02-09T04:41:52.688Z,98656.00
2024-02-09T04:44:23.073Z,98660.00
2024-02-09T04:46:51.542Z,98667.00
2024-02-09T04:49:18.764Z,98669.00
2024-02-09T04:51:48.249Z,98682.00
2024-02-09T04:54:16.078Z,98685.00
2024-02-09T04:56:43.363Z,98684.00
2024-02-09T04:59:11.189Z,98641.00
2024-02-09T05:01:40.622Z,98676.00
2024-02-09T05:04:16.841Z,98681.00
2024-02-09T05:06:43.970Z,98677.00
2024-02-09T05:09:11.226Z,98658.00
2024-02-09T05:11:40.676Z,98664.00
2024-02-09T05:14:08.868Z,98658.00
2024-02-09T05:16:40.479Z,98652.00
2024-02-09T05:19:11.573Z,98647.00
2024-02-09T05:21:40.700Z,98645.00
2024-02-09T05:24:07.847Z,98651.00
2024-02-09T05:26:35.288Z,98636.00
2024-02-09T05:29:08.723Z,98638.00
2024-02-09T05:31:35.803Z,98635.00
2024-02-09T05:34:05.272Z,98631.00
2024-02-09T05:36:34.085Z,98639.00
2024-02-09T05:39:02.755Z,98634.00
2024-02-09T05:41:31.789Z,98637.00
2024-02-09T05:43:59.522Z,98634.00
2024-02-09T05:46:27.818Z,98623.00
2024-02-09T05:48:57.457Z,98631.00
2024-02-09T05:51:25.691Z,98588.00
2024-02-09T05:53:53.216Z,98594.00
2024-02-09T05:56:23.061Z,98631.00
2024-02-09T05:58:53.886Z,98626.00
2024-02-09T06:01:24.229Z,98611.00
2024-02-09T06:03:53.383Z,98615.00
2024-02-09T06:06:22.551Z,98588.00
2024-02-09T06:08:51.212Z,98615.00
2024-02-09T06:11:18.958Z,98616.00
2024-02-09T06:13:47.265Z,98618.00
2024-02-09T06:16:20.441Z,98625.00
2024-02-09T06:18:50.503Z,98633.00
2024-02-09T06:21:18.566Z,98629.00
2024-02-09T06:23:47.443Z,98632.00
2024-02-09T06:26:18.174Z,98633.00
2024-02-09T06:28:49.462Z,98631.00
2024-02-09T06:31:27.235Z,98650.00
2024-02-09T06:33:56.456Z,98635.00
2024-02-09T06:36:24.045Z,98638.00
2024-02-09T06:38:52.351Z,98639.00
2024-02-09T06:41:19.301Z,98640.00
2024-02-09T06:43:46.442Z,98637.00
2024-02-09T06:46:19.294Z,98642.00
2024-02-09T06:48:48.269Z,98636.00
2024-02-09T06:51:20.695Z,98649.00
2024-02-09T06:53:48.380Z,98647.00
2024-02-09T06:56:15.498Z,98652.00
2024-02-09T06:58:42.638Z,98652.00
2024-02-09T07:01:12.590Z,98651.00
2024-02-09T07:03:41.283Z,98651.00
2024-02-09T07:06:09.348Z,98657.00
2024-02-09T07:08:42.792Z,98649.00
2024-02-09T07:11:14.086Z,98654.00
2024-02-09T07:13:46.594Z,98639.00
2024-02-09T07:16:13.928Z,98642.00
2024-02-09T07:18:43.199Z,98624.00
2024-02-09T07:21:12.093Z,98640.00
2024-02-09T07:23:39.237Z,98639.00
2024-02-09T07:26:10.294Z,98640.00
2024-02-09T07:28:41.891Z,98649.00
2024-02-09T07:31:10.579Z,98654.00
2024-02-09T07:33:38.376Z,98657.00
2024-02-09T07:36:08.261Z,98646.00
2024-02-09T07:38:36.130Z,98646.00
2024-02-09T07:41:03.530Z,98635.00
2024-02-09T07:43:30.618Z,98640.00
2024-02-09T07:46:00.462Z,98636.00
2024-02-09T07:48:30.599Z,98627.00
2024-02-09T07:50:59.342Z,98632.00
2024-02-09T07:53:26.481Z,98636.00
2024-02-09T07:55:54.691Z,98625.00
2024-02-09T07:58:23.425Z,98618.00
2024-02-09T08:00:50.518Z,98610.00
2024-02-09T08:03:17.595Z,98619.00
2024-02-09T08:05:44.752Z,98626.00
2024-02-09T08:08:12.260Z,98637.00
2024-02-09T08:10:39.516Z,98523.00
2024-02-09T08:13:06.941Z,98648.00
2024-02-09T08:15:34.013Z,98649.00
2024-02-09T08:18:01.230Z,98637.00
2024-02-09T08:20:29.087Z,98645.00
2024-02-09T08:22:56.154Z,98644.00
2024-02-09T08:25:24.129Z,98634.00
2024-02-09T08:27:51.264Z,98638.00
2024-02-09T08:30:18.247Z,98645.00
2024-02-09T08:32:45.367Z,98628.00
2024-02-09T08:35:13.062Z,98641.00
2024-02-09T08:37:40.145Z,98635.00
2024-02-09T08:40:08.361Z,98632.00
2024-02-09T08:42:36.337Z,98638.00
2024-02-09T08:45:03.593Z,98638.00
2024-02-09T08:47:30.806Z,98634.00
2024-02-09T08:49:57.923Z,98627.00
2024-02-09T08:52:25.008Z,98635.00
2024-02-09T08:54:52.065Z,98629.00
2024-02-09T08:57:21.989Z,98630.00
2024-02-09T08:59:49.062Z,98636.00
2024-02-09T09:02:16.462Z,98636.00
2024-02-09T09:04:44.815Z,98625.00
2024-02-09T09:07:11.939Z,98642.00
2024-02-09T09:09:40.685Z,98647.00
2024-02-09T09:12:11.168Z,98649.00
2024-02-09T09:14:41.097Z,98654.00
2024-02-09T09:17:17.842Z,98648.00
2024-02-09T09:19:51.615Z,98652.00
2024-02-09T09:22:19.918Z,98648.00
2024-02-09T09:24:48.071Z,98644.00
2024-02-09T09:27:15.239Z,98642.00
2024-02-09T09:29:42.246Z,98646.00
2024-02-09T09:32:09.685Z,98637.00
2024-02-09T09:34:37.078Z,98637.00
2024-02-09T09:37:06.036Z,98634.00
2024-02-09T09:39:33.088Z,98629.00
2024-02-09T09:42:01.997Z,98626.00
2024-02-09T09:44:29.183Z,98615.00
2024-02-09T09:46:59.679Z,98627.00
2024-02-09T09:49:28.136Z,98600.00
2024-02-09T09:52:02.092Z,98606.00
2024-02-09T09:54:34.279Z,98595.00
2024-02-09T09:57:02.546Z,98595.00
2024-02-09T09:59:31.052Z,98592.00
2024-02-09T10:01:58.623Z,98601.00
2024-02-09T10:04:26.031Z,98594.00
2024-02-09T10:06:54.191Z,98591.00
2024-02-09T10:09:21.462Z,98588.00
2024-02-09T10:11:52.309Z,98594.00
2024-02-09T10:14:21.561Z,98557.00
2024-02-09T10:16:49.590Z,98567.00
2024-02-09T10:19:18.890Z,98579.00
2024-02-09T10:24:19.132Z,98581.00
2024-02-09T10:26:47.955Z,98567.00
2024-02-09T10:29:17.066Z,98559.00
2024-02-09T10:31:47.163Z,98572.00
2024-02-09T10:34:14.457Z,98569.00
2024-02-09T10:36:42.362Z,98567.00
2024-02-09T10:39:09.554Z,98557.00
2024-02-09T10:41:40.710Z,98552.00
2024-02-09T10:44:12.602Z,98563.00
2024-02-09T10:46:40.420Z,98555.00
2024-02-09T10:49:10.900Z,98552.00
2024-02-09T10:51:41.192Z,98556.00
2024-02-09T10:54:31.385Z,98550.00
2024-02-09T10:56:59.108Z,98542.00
2024-02-09T10:59:27.365Z,98553.00
2024-02-09T11:01:54.916Z,98535.00
2024-02-09T11:04:23.433Z,98539.00
2024-02-09T11:06:52.023Z,98544.00
2024-02-09T11:09:19.381Z,98535.00
2024-02-09T11:11:49.509Z,98540.00
2024-02-09T11:14:19.572Z,98535.00
2024-02-09T11:16:51.884Z,98507.00
2024-02-09T11:19:20.363Z,98540.00
2024-02-09T11:21:58.800Z,98535.00
2024-02-09T11:24:27.277Z,98523.00
2024-02-09T11:26:55.248Z,98527.00
2024-02-09T11:29:23.934Z,98535.00
2024-02-09T11:31:54.267Z,98543.00
2024-02-09T11:34:31.167Z,98525.00
2024-02-09T11:37:00.677Z,98535.00
2024-02-09T11:39:35.902Z,98527.00
2024-02-09T11:42:07.663Z,98524.00
2024-02-09T11:44:37.557Z,98520.00
2024-02-09T11:47:05.734Z,98526.00
2024-02-09T11:49:32.881Z,98527.00
2024-02-09T11:52:07.815Z,98519.00
2024-02-09T11:54:35.988Z,98520.00
2024-02-09T11:57:07.186Z,98518.00
2024-02-09T11:59:37.491Z,98482.00
2024-02-09T12:02:06.974Z,98500.00
2024-02-09T12:04:34.279Z,98495.00
2024-02-09T12:07:01.724Z,98493.00
2024-02-09T12:09:32.900Z,98495.00
2024-02-09T12:12:00.745Z,98492.00
2024-02-09T12:14:30.300Z,98482.00
2024-02-09T12:16:58.099Z,98485.00
2024-02-09T12:19:25.719Z,98479.00
2024-02-09T12:21:53.055Z,98471.00
2024-02-09T12:24:21.169Z,98467.00
2024-02-09T12:26:48.220Z,98463.00
2024-02-09T12:29:15.518Z,98468.00
2024-02-09T12:31:45.086Z,98462.00
2024-02-09T12:34:14.883Z,98455.00
2024-02-09T12:36:43.074Z,98457.00
2024-02-09T12:39:13.851Z,98453.00
2024-02-09T12:41:42.646Z,98457.00
2024-02-09T12:44:18.376Z,98451.00
2024-02-09T12:46:45.675Z,98451.00
2024-02-09T12:49:20.693Z,98448.00
2024-02-09T12:51:48.648Z,98458.00
2024-02-09T12:54:15.688Z,98450.00
2024-02-09T12:56:43.108Z,98428.00
2024-02-09T12:59:10.313Z,98444.00
2024-02-09T13:01:37.639Z,98432.00
2024-02-09T13:04:05.156Z,98424.00
2024-02-09T13:06:32.954Z,98426.00
2024-02-09T13:09:00.377Z,98430.00
2024-02-09T13:11:27.780Z,98424.00
2024-02-09T13:13:56.875Z,98425.00
2024-02-09T13:16:24.693Z,98416.00
2024-02-09T13:18:52.155Z,98417.00
2024-02-09T13:21:22.101Z,98404.00
2024-02-09T13:23:51.379Z,98398.00
2024-02-09T13:26:18.533Z,98388.00
2024-02-09T13:28:49.016Z,98375.00
2024-02-09T13:31:16.350Z,98372.00
2024-02-09T13:33:45.842Z,98375.00
2024-02-09T13:36:13.032Z,98380.00
2024-02-09T13:38:40.080Z,98369.00
2024-02-09T13:41:07.154Z,98387.00
2024-02-09T13:43:34.353Z,98384.00
2024-02-09T13:46:01.427Z,98374.00
2024-02-09T13:48:28.712Z,98381.00
2024-02-09T13:50:55.792Z,98377.00
2024-02-09T13:53:22.772Z,98361.00
2024-02-09T13:55:49.999Z,98362.00
2024-02-09T13:58:17.167Z,98363.00
2024-02-09T14:00:44.394Z,98371.00
2024-02-09T14:03:12.522Z,98366.00
2024-02-09T14:05:39.649Z,98369.00
2024-02-09T14:08:07.836Z,98368.00
2024-02-09T14:10:37.282Z,98361.00
2024-02-09T14:13:04.778Z,98363.00
2024-02-09T14:15:35.309Z,98359.00
2024-02-09T14:18:02.416Z,98365.00
2024-02-09T14:20:30.833Z,98346.00
2024-02-09T14:23:03.627Z,98339.00
2024-02-09T14:25:31.336Z,98354.00
2024-02-09T14:27:58.451Z,98343.00
2024-02-09T14:30:25.440Z,98343.00
2024-02-09T14:32:55.403Z,98344.00
2024-02-09T14:35:22.984Z,98346.00
2024-02-09T14:37:50.435Z,98354.00
2024-02-09T14:40:18.144Z,98340.00
2024-02-09T14:42:45.321Z,98339.00
2024-02-09T14:45:17.095Z,98338.00
2024-02-09T14:47:45.818Z,98333.00
2024-02-09T14:50:12.981Z,98328.00
2024-02-09T14:52:43.935Z,98325.00
2024-02-09T14:55:11.852Z,98292.00
2024-02-09T14:57:39.450Z,98335.00
2024-02-09T15:00:08.301Z,98327.00
2024-02-09T15:02:35.557Z,98332.00
2024-02-09T15:05:08.816Z,98334.00
2024-02-09T15:07:35.964Z,98326.00
2024-02-09T15:10:06.117Z,98328.00
2024-02-09T15:12:33.131Z,98335.00
2024-02-09T15:15:01.792Z,98332.00
2024-02-09T15:17:28.838Z,98318.00
2024-02-09T15:19:56.112Z,98325.00
2024-02-09T15:22:23.282Z,98293.00
2024-02-09T15:24:50.351Z,98324.00
2024-02-09T15:27:19.962Z,98319.00
2024-02-09T15:29:47.517Z,98317.00
2024-02-09T15:32:14.676Z,98319.00
2024-02-09T15:34:45.227Z,98316.00
2024-02-09T15:37:13.833Z,98314.00
2024-02-09T15:39:42.725Z,98315.00
2024-02-09T15:42:10.484Z,98316.00
2024-02-09T15:44:38.266Z,98308.00
2024-02-09T15:47:05.478Z,98311.00
2024-02-09T15:49:34.470Z,98307.00
2024-02-09T15:52:02.440Z,98299.00
2024-02-09T15:54:29.569Z,98295.00
2024-02-09T15:56:56.654Z,98298.00
2024-02-09T15:59:24.810Z,98296.00
2024-02-09T16:01:53.772Z,98255.00
2024-02-09T16:04:21.908Z,98301.00
2024-02-09T16:06:50.362Z,98301.00
2024-02-09T16:09:19.165Z,98295.00
2024-02-09T16:11:49.382Z,98305.00
2024-02-09T16:14:17.634Z,98310.00
2024-02-09T16:16:45.330Z,98314.00
2024-02-09T16:19:12.625Z,98315.00
2024-02-09T16:21:41.871Z,98319.00
2024-02-09T16:24:10.795Z,98314.00
2024-02-09T16:26:39.815Z,98316.00
2024-02-09T16:29:09.732Z,98318.00
2024-02-09T16:31:39.436Z,98325.00
2024-02-09T16:34:06.759Z,98333.00
2024-02-09T16:36:34.639Z,98330.00
2024-02-09T16:39:01.622Z,98331.00
2024-02-09T16:41:28.676Z,98318.00
2024-02-09T16:43:55.776Z,98299.00
2024-02-09T16:46:24.990Z,98312.00
2024-02-09T16:48:53.493Z,98314.00
2024-02-09T16:51:20.498Z,98308.00
2024-02-09T16:53:47.478Z,98314.00
2024-02-09T16:56:15.082Z,98310.00
2024-02-09T16:58:42.177Z,98303.00
2024-02-09T17:01:09.447Z,98303.00
2024-02-09T17:03:37.235Z,98299.00
2024-02-09T17:06:05.935Z,98301.00
2024-02-09T17:08:32.956Z,98307.00
2024-02-09T17:11:00.274Z,98294.00
2024-02-09T17:13:29.369Z,98290.00
2024-02-09T17:15:56.348Z,98289.00
2024-02-09T17:18:23.313Z,98281.00
2024-02-09T17:20:50.321Z,98273.00
2024-02-09T17:23:17.455Z,98275.00
2024-02-09T17:25:44.493Z,98284.00
2024-02-09T17:28:11.811Z,98294.00
2024-02-09T17:30:39.019Z,98296.00
2024-02-09T17:33:06.567Z,98293.00
2024-02-09T17:35:33.807Z,98295.00
2024-02-09T17:38:00.872Z,98281.00
2024-02-09T17:40:28.046Z,98275.00
2024-02-09T17:42:57.399Z,98296.00
2024-02-09T17:45:24.522Z,98307.00
2024-02-09T17:47:54.752Z,98311.00
2024-02-09T17:50:22.997Z,98307.00
2024-02-09T17:52:53.961Z,98309.00
2024-02-09T17:55:21.924Z,98306.00
2024-02-09T17:57:51.039Z,98305.00
2024-02-09T18:00:20.990Z,98295.00
2024-02-09T18:02:48.163Z,98299.00
2024-02-09T18:05:15.417Z,98279.00
2024-02-09T18:07:42.725Z,98285.00
2024-02-09T18:10:10.013Z,98282.00
2024-02-09T18:12:37.067Z,98284.00
2024-02-09T18:15:06.907Z,98282.00
2024-02-09T18:17:34.035Z,98290.00
2024-02-09T18:20:01.134Z,98288.00
2024-02-09T18:22:30.149Z,98293.00
2024-02-09T18:24:57.233Z,98292.00
2024-02-09T18:27:27.940Z,98280.00
2024-02-09T18:29:55.702Z,98273.00
2024-02-09T18:32:25.529Z,98288.00
2024-02-09T18:34:54.735Z,98278.00
2024-02-09T18:37:24.783Z,98279.00
2024-02-09T18:39:51.996Z,98271.00
2024-02-09T18:42:19.230Z,98269.00
2024-02-09T18:44:46.280Z,98257.00
2024-02-09T18:47:14.478Z,98253.00
2024-02-09T18:49:41.926Z,98235.00
2024-02-09T18:52:09.625Z,98258.00
2024-02-09T18:54:42.201Z,98254.00
2024-02-09T18:57:09.219Z,98251.00
2024-02-09T18:59:37.451Z,98256.00
2024-02-09T19:02:07.185Z,98258.00
2024-02-09T19:04:34.344Z,98266.00
2024-02-09T19:07:01.684Z,98256.00
2024-02-09T19:09:28.778Z,98263.00
2024-02-09T19:11:56.614Z,98261.00
2024-02-09T19:14:26.028Z,98264.00
2024-02-09T19:16:53.377Z,98255.00
2024-02-09T19:19:20.632Z,98265.00
2024-02-09T19:21:50.641Z,98257.00
2024-02-09T19:24:18.993Z,98262.00
2024-02-09T19:26:46.564Z,98255.00
2024-02-09T19:29:13.729Z,98252.00
2024-02-09T19:31:40.914Z,98246.00
2024-02-09T19:34:10.845Z,98267.00
2024-02-09T19:36:38.947Z,98260.00
2024-02-09T19:39:06.685Z,98266.00
2024-02-09T19:41:35.086Z,98258.00
2024-02-09T19:44:04.962Z,98243.00
2024-02-09T19:46:32.432Z,98238.00
2024-02-09T19:49:10.246Z,98235.00
2024-02-09T19:51:39.091Z,98228.00
2024-02-09T19:54:08.244Z,98236.00
2024-02-09T19:56:35.353Z,98232.00
2024-02-09T19:59:02.498Z,98206.00
2024-02-09T20:01:30.109Z,98238.00
2024-02-09T20:03:59.097Z,98243.00
2024-02-09T20:06:29.139Z,98242.00
2024-02-09T20:08:56.441Z,98243.00
2024-02-09T20:11:24.930Z,98245.00
2024-02-09T20:13:54.585Z,98244.00
2024-02-09T20:16:21.882Z,98249.00
2024-02-09T20:18:50.722Z,98246.00
2024-02-09T20:21:19.467Z,98242.00
2024-02-09T20:23:46.632Z,98243.00
2024-02-09T20:26:16.143Z,98248.00
2024-02-09T20:28:44.892Z,98229.00
2024-02-09T20:31:13.778Z,98233.00
2024-02-09T20:33:41.752Z,98231.00
2024-02-09T20:36:10.979Z,98243.00
2024-02-09T20:38:38.775Z,98241.00
2024-02-09T20:41:08.746Z,98231.00
2024-02-09T20:43:37.337Z,98239.00
2024-02-09T20:46:04.566Z,98236.00
2024-02-09T20:48:32.189Z,98229.00
2024-02-09T20:51:03.809Z,98226.00
2024-02-09T20:53:32.599Z,98226.00
2024-02-09T20:56:06.873Z,98224.00
2024-02-09T20:58:40.336Z,98215.00
2024-02-09T21:01:16.583Z,98199.00
2024-02-09T21:03:43.973Z,98222.00
2024-02-09T21:06:11.580Z,98215.00
2024-02-09T21:08:43.015Z,98220.00
2024-02-09T21:11:11.906Z,98213.00
2024-02-09T21:13:40.217Z,98217.00
2024-02-09T21:16:07.534Z,98223.00
2024-02-09T21:18:36.712Z,98220.00
2024-02-09T21:21:04.264Z,98218.00
2024-02-09T21:23:31.723Z,98212.00
2024-02-09T21:26:00.190Z,98222.00
2024-02-09T21:28:31.240Z,98231.00
2024-02-09T21:30:58.548Z,98230.00
2024-02-09T21:33:25.688Z,98218.00
2024-02-09T21:35:57.512Z,98232.00
2024-02-09T21:38:28.110Z,98239.00
2024-02-09T21:40:55.195Z,98228.00
2024-02-09T21:43:25.794Z,98230.00
2024-02-09T21:45:53.799Z,98235.00
2024-02-09T21:48:21.666Z,98216.00
2024-02-09T21:50:48.830Z,98226.00
2024-02-09T21:53:17.121Z,98226.00
2024-02-09T21:55:50.377Z,98235.00
2024-02-09T21:58:17.928Z,98223.00
2024-02-09T22:00:45.305Z,98219.00
2024-02-09T22:03:12.536Z,98212.00
2024-02-09T22:05:39.909Z,98221.00
2024-02-09T22:08:08.437Z,98224.00
2024-02-09T22:10:35.704Z,98223.00
2024-02-09T22:13:03.090Z,98207.00
2024-02-09T22:15:31.026Z,98203.00
2024-02-09T22:17:58.663Z,98215.00
2024-02-09T22:20:25.971Z,98195.00
2024-02-09T22:22:54.088Z,98230.00
2024-02-09T22:25:21.487Z,98228.00
2024-02-09T22:27:54.061Z,98224.00
2024-02-09T22:30:21.320Z,98219.00
2024-02-09T22:32:48.542Z,98222.00
2024-02-09T22:35:15.885Z,98218.00
2024-02-09T22:37:45.363Z,98222.00
2024-02-09T22:40:18.487Z,98221.00
2024-02-09T22:42:48.792Z,98216.00
2024-02-09T22:45:15.815Z,98214.00
2024-02-09T22:47:43.183Z,98207.00
2024-02-09T22:50:12.868Z,98211.00
2024-02-09T22:52:41.302Z,98204.00
2024-02-09T22:55:08.670Z,98207.00
2024-02-09T22:57:40.087Z,98209.00
2024-02-09T23:00:19.128Z,98198.00
2024-02-09T23:02:47.939Z,98211.00
2024-02-09T23:05:16.093Z,98197.00
2024-02-09T23:07:45.362Z,98207.00
2024-02-09T23:10:15.470Z,98201.00
2024-02-09T23:12:43.287Z,98185.00
2024-02-09T23:15:16.720Z,98193.00
2024-02-09T23:17:47.102Z,98191.00
2024-02-09T23:20:15.314Z,98194.00
2024-02-09T23:22:42.486Z,98183.00
2024-02-09T23:25:09.876Z,98181.00
2024-02-09T23:27:41.131Z,98192.00
2024-02-09T23:30:12.494Z,98199.00
2024-02-09T23:32:40.455Z,98199.00
2024-02-09T23:35:09.876Z,98206.00
2024-02-09T23:37:40.532Z,98206.00
2024-02-09T23:40:09.586Z,98196.00
2024-02-09T23:42:36.884Z,98195.00
2024-02-09T23:45:05.260Z,98196.00
2024-02-09T23:47:33.742Z,98188.00
2024-02-09T23:50:03.003Z,98197.00
2024-02-09T23:52:30.344Z,98189.00
2024-02-09T23:54:57.279Z,98194.00
2024-02-09T23:57:25.750Z,98188.00
2024-02-09T23:59:52.698Z,98189.00
